Auburn, Georgia
Current Conditions -  °F | °C
As of 8:45 PM on Sunday 21 Dec 2014 (Local Time) from KLZU Reporting Station
Overcast Overcast  
Wind Chill:   Ceiling: 2500
Heat Index:   Visibility: 10mi
Dew Point:   Wind: 7mph
Humidity: 66%   Direction: 70°ENE
Pressure: 30.11"   Gusts: NA
Location:  34.01°N, 83.83°W
Report Text: KLZU 220145Z 07006KT 10SM OVC025 09/03 A3011 RMK JW
Loading
Personal Weather Stations






























Interactive Weather Map New forecast layout! Learn more

10-Day Weather Forecast

Advertisements
Track Severe Weather on mobile